createdAt,value
2017-08-11T00:02:16.470Z,40.87
2017-08-11T00:04:44.846Z,38.03
2017-08-11T00:07:13.201Z,33.93
2017-08-11T00:09:41.551Z,39.87
2017-08-11T00:12:09.558Z,38.60
2017-08-11T00:14:38.012Z,32.90
2017-08-11T00:17:06.365Z,45.60
2017-08-11T00:19:34.921Z,30.63
2017-08-11T00:22:03.279Z,32.80
2017-08-11T00:24:31.637Z,29.00
2017-08-11T00:27:00.129Z,38.27
2017-08-11T00:29:28.574Z,39.60
2017-08-11T00:31:56.921Z,41.17
2017-08-11T00:34:25.280Z,34.20
2017-08-11T00:36:53.652Z,24.50
2017-08-11T00:39:22.320Z,27.60
2017-08-11T00:41:50.665Z,32.00
2017-08-11T00:44:19.031Z,27.00
2017-08-11T00:46:48.151Z,34.23
2017-08-11T00:49:16.535Z,26.23
2017-08-11T00:51:44.891Z,23.20
2017-08-11T00:54:13.245Z,24.57
2017-08-11T00:56:41.615Z,22.40
2017-08-11T00:59:10.244Z,20.20
2017-08-11T01:01:38.590Z,28.50
2017-08-11T01:04:07.738Z,26.43
2017-08-11T01:06:36.094Z,19.87
2017-08-11T01:09:03.747Z,21.07
2017-08-11T01:11:32.111Z,25.40
2017-08-11T01:14:00.601Z,26.13
2017-08-11T01:16:28.950Z,25.43
2017-08-11T01:18:57.312Z,27.43
2017-08-11T01:21:25.693Z,24.47
2017-08-11T01:23:54.253Z,25.97
2017-08-11T01:26:22.686Z,26.00
2017-08-11T01:28:51.114Z,23.60
2017-08-11T01:31:19.480Z,23.97
2017-08-11T01:33:48.121Z,25.10
2017-08-11T01:36:16.470Z,27.80
2017-08-11T01:38:45.598Z,24.40
2017-08-11T01:41:14.170Z,23.97
2017-08-11T01:43:42.685Z,23.37
2017-08-11T01:46:11.230Z,28.80
2017-08-11T01:48:39.251Z,22.90
2017-08-11T01:51:07.675Z,33.57
2017-08-11T01:53:36.052Z,24.13
2017-08-11T01:56:04.402Z,25.40
2017-08-11T01:58:32.775Z,27.93
2017-08-11T02:01:01.897Z,23.43
2017-08-11T02:03:30.261Z,23.67
2017-08-11T02:05:58.239Z,31.50
2017-08-11T02:08:25.897Z,24.80
2017-08-11T02:10:54.267Z,27.77
2017-08-11T02:13:22.635Z,25.93
2017-08-11T02:15:51.125Z,22.67
2017-08-11T02:18:19.469Z,24.40
2017-08-11T02:20:48.258Z,29.90
2017-08-11T02:23:16.614Z,39.63
2017-08-11T02:25:44.970Z,33.43
2017-08-11T02:28:13.329Z,31.13
2017-08-11T02:30:41.689Z,36.30
2017-08-11T02:33:10.059Z,41.60
2017-08-11T02:35:38.436Z,40.40
2017-08-11T02:38:06.799Z,27.33
2017-08-11T02:40:35.195Z,31.47
2017-08-11T02:43:03.571Z,30.47
2017-08-11T02:45:31.922Z,40.20
2017-08-11T02:48:00.283Z,25.90
2017-08-11T02:50:29.415Z,26.33
2017-08-11T02:52:57.774Z,30.73
2017-08-11T02:55:26.163Z,29.30
2017-08-11T02:57:54.509Z,34.90
2017-08-11T03:00:22.870Z,28.60
2017-08-11T03:02:51.225Z,34.60
2017-08-11T03:05:19.591Z,43.97
2017-08-11T03:07:47.950Z,30.20
2017-08-11T03:10:16.320Z,33.37
2017-08-11T03:12:44.682Z,31.93
2017-08-11T03:15:13.172Z,39.00
2017-08-11T03:17:41.543Z,31.97
2017-08-11T03:20:09.893Z,34.20
2017-08-11T03:22:38.267Z,45.77
2017-08-11T03:25:06.965Z,37.30
2017-08-11T03:27:35.358Z,40.80
2017-08-11T03:30:03.734Z,38.00
2017-08-11T03:32:32.110Z,38.97
2017-08-11T03:35:00.458Z,40.60
2017-08-11T03:37:28.915Z,51.73
2017-08-11T03:39:57.273Z,44.67
2017-08-11T03:42:25.759Z,47.40
2017-08-11T03:44:54.195Z,38.90
2017-08-11T03:47:22.679Z,39.90
2017-08-11T03:49:51.039Z,44.60
2017-08-11T03:52:19.385Z,48.00
2017-08-11T03:54:47.754Z,38.27
2017-08-11T03:57:16.098Z,45.43
2017-08-11T03:59:44.471Z,45.47
2017-08-11T04:02:12.839Z,45.00
2017-08-11T04:04:41.210Z,46.10
2017-08-11T04:07:09.783Z,47.87
2017-08-11T04:09:38.133Z,50.27
2017-08-11T04:12:06.519Z,52.30
2017-08-11T04:14:34.878Z,55.40
2017-08-11T04:17:04.008Z,64.97
2017-08-11T04:19:32.485Z,57.80
2017-08-11T04:22:00.852Z,61.10
2017-08-11T04:24:29.541Z,53.70
2017-08-11T04:26:57.890Z,45.23
2017-08-11T04:29:27.012Z,49.17
2017-08-11T04:31:55.366Z,47.67
2017-08-11T04:34:23.734Z,49.20
2017-08-11T04:36:52.344Z,50.80
2017-08-11T04:39:20.689Z,53.27
2017-08-11T04:41:48.788Z,53.50
2017-08-11T04:44:17.218Z,58.60
2017-08-11T04:46:45.577Z,52.97
2017-08-11T04:49:13.950Z,47.83
2017-08-11T04:51:42.311Z,36.90
2017-08-11T04:54:10.666Z,35.23
2017-08-11T04:56:39.028Z,36.00
2017-08-11T04:59:07.377Z,38.17
2017-08-11T05:01:36.565Z,39.97
2017-08-11T05:04:04.923Z,38.60
2017-08-11T05:06:33.437Z,29.73
2017-08-11T05:09:02.555Z,35.90
2017-08-11T05:11:30.935Z,34.97
2017-08-11T05:13:59.282Z,43.97
2017-08-11T05:16:27.651Z,32.60
2017-08-11T05:18:56.015Z,36.77
2017-08-11T05:21:24.401Z,32.07
2017-08-11T05:23:52.965Z,30.50
2017-08-11T05:26:21.311Z,31.10
2017-08-11T05:28:49.674Z,21.80
2017-08-11T05:31:18.031Z,24.60
2017-08-11T05:33:46.420Z,22.20
2017-08-11T05:36:14.770Z,21.13
2017-08-11T05:38:43.142Z,20.97
2017-08-11T05:41:11.511Z,22.53
2017-08-11T05:43:39.873Z,24.03
2017-08-11T05:46:08.238Z,23.77
2017-08-11T05:48:36.607Z,23.67
2017-08-11T05:51:04.965Z,19.50
2017-08-11T05:53:33.530Z,15.53
2017-08-11T05:56:01.895Z,16.10
2017-08-11T05:58:30.260Z,16.37
2017-08-11T06:00:58.648Z,17.60
2017-08-11T06:03:27.672Z,16.77
2017-08-11T06:05:56.041Z,17.20
2017-08-11T06:08:24.410Z,16.07
2017-08-11T06:10:52.880Z,14.30
2017-08-11T06:13:21.251Z,16.97
2017-08-11T06:15:49.617Z,16.90
2017-08-11T06:18:17.970Z,17.40
2017-08-11T06:20:46.339Z,19.40
2017-08-11T06:23:14.709Z,19.80
2017-08-11T06:25:43.058Z,20.47
2017-08-11T06:28:11.431Z,20.33
2017-08-11T06:30:39.786Z,18.83
2017-08-11T06:33:08.157Z,18.67
2017-08-11T06:35:36.510Z,20.60
2017-08-11T06:38:04.962Z,20.70
2017-08-11T06:40:33.316Z,18.97
2017-08-11T06:43:01.703Z,17.93
2017-08-11T06:45:30.962Z,21.00
2017-08-11T06:47:59.404Z,17.60
2017-08-11T06:50:27.768Z,16.30
2017-08-11T06:52:56.137Z,16.30
2017-08-11T06:55:24.512Z,16.00
2017-08-11T06:57:52.879Z,14.70
2017-08-11T07:00:21.274Z,18.17
2017-08-11T07:02:49.638Z,19.50
2017-08-11T07:05:17.990Z,17.70
2017-08-11T07:07:46.447Z,18.40
2017-08-11T07:10:14.803Z,16.50
2017-08-11T07:12:43.231Z,15.93
2017-08-11T07:15:11.778Z,15.77
2017-08-11T07:17:40.136Z,16.67
2017-08-11T07:20:08.503Z,15.57
2017-08-11T07:22:37.643Z,13.50
2017-08-11T07:25:05.997Z,13.60
2017-08-11T07:27:34.579Z,14.00
2017-08-11T07:30:02.962Z,14.03
2017-08-11T07:32:31.325Z,14.93
2017-08-11T07:34:59.707Z,14.93
2017-08-11T07:37:28.063Z,17.17
2017-08-11T07:39:56.442Z,17.20
2017-08-11T07:42:24.837Z,19.30
2017-08-11T07:44:53.211Z,19.23
2017-08-11T07:47:21.571Z,19.13
2017-08-11T07:49:49.941Z,19.13
2017-08-11T07:52:18.407Z,17.30
2017-08-11T07:54:46.954Z,20.33
2017-08-11T07:57:15.318Z,21.23
2017-08-11T07:59:43.711Z,21.13
2017-08-11T08:02:12.149Z,19.80
2017-08-11T08:04:40.577Z,21.30
2017-08-11T08:07:08.942Z,21.73
2017-08-11T08:09:37.584Z,23.83
2017-08-11T08:12:05.964Z,23.87
2017-08-11T08:14:34.314Z,24.80
2017-08-11T08:17:02.716Z,23.43
2017-08-11T08:19:31.064Z,22.70
2017-08-11T08:22:00.182Z,20.87
2017-08-11T08:24:28.555Z,22.20
2017-08-11T08:26:56.979Z,22.33
2017-08-11T08:29:25.354Z,23.47
2017-08-11T08:31:53.735Z,19.80
2017-08-11T08:34:22.111Z,24.10
2017-08-11T08:36:50.641Z,24.43
2017-08-11T08:39:18.982Z,23.40
2017-08-11T08:41:47.777Z,23.17
2017-08-11T08:44:16.180Z,24.87
2017-08-11T08:46:44.550Z,25.00
2017-08-11T08:49:13.398Z,23.60
2017-08-11T08:51:42.514Z,23.70
2017-08-11T08:54:10.876Z,20.30
2017-08-11T08:56:39.255Z,22.20
2017-08-11T08:59:07.610Z,20.50
2017-08-11T09:01:35.978Z,19.20
2017-08-11T09:04:04.337Z,21.30
2017-08-11T09:06:32.709Z,22.87
2017-08-11T09:09:01.984Z,22.50
2017-08-11T09:11:30.416Z,20.17
2017-08-11T09:13:58.771Z,19.67
2017-08-11T09:16:27.132Z,20.77
2017-08-11T09:18:55.522Z,20.33
2017-08-11T09:21:24.646Z,21.40
2017-08-11T09:23:53.010Z,21.13
2017-08-11T09:26:32.598Z,21.00
2017-08-11T09:29:11.964Z,20.00
2017-08-11T09:31:51.354Z,19.10
2017-08-11T09:34:30.883Z,20.63
2017-08-11T09:36:59.339Z,18.20
2017-08-11T09:39:27.715Z,15.67
2017-08-11T09:41:56.063Z,13.60
2017-08-11T09:44:24.431Z,14.50
2017-08-11T09:46:52.609Z,14.37
2017-08-11T09:49:21.683Z,15.10
2017-08-11T09:51:50.149Z,14.70
2017-08-11T09:54:18.578Z,14.20
2017-08-11T09:56:46.754Z,14.97
2017-08-11T09:59:15.113Z,14.00
2017-08-11T10:01:43.469Z,15.10
2017-08-11T10:04:11.829Z,16.23
2017-08-11T10:06:40.192Z,15.60
2017-08-11T10:09:08.549Z,15.60
2017-08-11T10:11:37.146Z,16.30
2017-08-11T10:14:05.837Z,15.97
2017-08-11T10:16:34.188Z,14.50
2017-08-11T10:19:02.553Z,13.10
2017-08-11T10:21:31.687Z,11.37
2017-08-11T10:24:00.033Z,11.10
2017-08-11T10:26:28.466Z,12.30
2017-08-11T10:28:56.817Z,10.90
2017-08-11T10:31:25.392Z,12.50
2017-08-11T10:33:53.738Z,11.20
2017-08-11T10:36:22.118Z,10.00
2017-08-11T10:38:51.243Z,10.50
2017-08-11T10:41:19.593Z,11.43
2017-08-11T10:43:47.958Z,11.33
2017-08-11T10:46:16.317Z,8.80
2017-08-11T10:48:44.682Z,10.37
2017-08-11T10:51:13.035Z,9.50
2017-08-11T10:53:41.624Z,9.47
2017-08-11T10:56:09.988Z,9.20
2017-08-11T10:58:38.347Z,9.50
2017-08-11T11:01:06.535Z,8.97
2017-08-11T11:03:34.897Z,8.40
2017-08-11T11:06:03.468Z,9.50
2017-08-11T11:08:31.952Z,8.77
2017-08-11T11:11:00.307Z,9.10
2017-08-11T11:13:28.702Z,7.33
2017-08-11T11:15:57.055Z,7.40
2017-08-11T11:18:25.515Z,7.93
2017-08-11T11:20:54.643Z,7.60
2017-08-11T11:23:23.074Z,7.03
2017-08-11T11:25:51.438Z,7.80
2017-08-11T11:28:19.954Z,8.23
2017-08-11T11:30:49.073Z,8.60
2017-08-11T11:33:17.434Z,7.17
2017-08-11T11:35:45.932Z,7.27
2017-08-11T11:38:14.287Z,7.27
2017-08-11T11:40:42.663Z,6.67
2017-08-11T11:43:11.112Z,6.60
2017-08-11T11:45:39.504Z,6.23
2017-08-11T11:48:07.864Z,6.47
2017-08-11T11:50:36.201Z,6.20
2017-08-11T11:53:04.769Z,5.90
2017-08-11T11:55:33.365Z,6.70
2017-08-11T11:58:01.721Z,6.33
2017-08-11T12:00:30.081Z,6.93
2017-08-11T12:02:58.479Z,6.23
2017-08-11T12:05:26.821Z,5.27
2017-08-11T12:07:55.174Z,5.93
2017-08-11T12:10:23.196Z,6.27
2017-08-11T12:12:51.550Z,6.47
2017-08-11T12:15:19.899Z,5.50
2017-08-11T12:17:49.033Z,6.53
2017-08-11T12:20:17.409Z,5.60
2017-08-11T12:22:45.779Z,6.90
2017-08-11T12:25:14.134Z,6.43
2017-08-11T12:27:42.507Z,7.83
2017-08-11T12:30:11.652Z,6.60
2017-08-11T12:32:40.014Z,6.10
2017-08-11T12:35:08.388Z,6.40
2017-08-11T12:37:36.753Z,6.90
2017-08-11T12:40:05.241Z,7.37
2017-08-11T12:42:33.595Z,7.00
2017-08-11T12:45:01.992Z,6.70
2017-08-11T12:47:30.334Z,6.03
2017-08-11T12:49:58.703Z,7.47
2017-08-11T12:52:28.042Z,6.50
2017-08-11T12:54:56.723Z,6.93
2017-08-11T12:57:25.068Z,7.27
2017-08-11T12:59:54.190Z,7.63
2017-08-11T13:02:22.550Z,6.27
2017-08-11T13:04:50.910Z,6.50
2017-08-11T13:07:19.357Z,7.07
2017-08-11T13:09:47.717Z,7.73
2017-08-11T13:12:16.086Z,6.50
2017-08-11T13:14:44.453Z,6.83
2017-08-11T13:17:12.802Z,7.37
2017-08-11T13:19:41.170Z,6.83
2017-08-11T13:22:09.541Z,7.80
2017-08-11T13:24:37.922Z,7.57
2017-08-11T13:27:06.283Z,7.53
2017-08-11T13:29:34.752Z,7.37
2017-08-11T13:32:03.099Z,6.93
2017-08-11T13:34:31.118Z,6.97
2017-08-11T13:36:59.522Z,7.13
2017-08-11T13:39:27.866Z,7.17
2017-08-11T13:41:57.267Z,7.70
2017-08-11T13:44:25.631Z,7.30
2017-08-11T13:46:54.002Z,8.23
2017-08-11T13:49:22.356Z,8.57
2017-08-11T13:51:50.709Z,9.20
2017-08-11T13:54:19.072Z,8.60
2017-08-11T13:56:47.429Z,8.43
2017-08-11T13:59:15.788Z,8.93
2017-08-11T14:01:44.168Z,9.37
2017-08-11T14:04:12.202Z,9.13
2017-08-11T14:06:41.330Z,9.13
2017-08-11T14:09:09.842Z,9.77
2017-08-11T14:11:38.204Z,10.27
2017-08-11T14:14:06.554Z,8.20
2017-08-11T14:16:35.695Z,9.53
2017-08-11T14:19:04.269Z,9.23
2017-08-11T14:21:32.621Z,9.10
2017-08-11T14:24:06.515Z,8.30
2017-08-11T14:26:35.846Z,8.30
2017-08-11T14:29:04.291Z,7.80
2017-08-11T14:31:32.650Z,7.93
2017-08-11T14:34:01.021Z,7.30
2017-08-11T14:36:29.658Z,6.30
2017-08-11T14:38:58.092Z,7.10
2017-08-11T14:41:26.455Z,6.73
2017-08-11T14:43:54.814Z,7.00
2017-08-11T14:46:23.171Z,7.00
2017-08-11T14:48:51.526Z,6.57
2017-08-11T14:51:20.551Z,6.57
2017-08-11T14:53:48.913Z,8.40
2017-08-11T14:56:17.491Z,6.63
2017-08-11T14:58:45.851Z,6.60
2017-08-11T15:01:14.202Z,7.60
2017-08-11T15:03:42.562Z,6.30
2017-08-11T15:06:11.091Z,7.23
2017-08-11T15:08:39.438Z,6.77
2017-08-11T15:11:08.565Z,8.47
2017-08-11T15:13:36.918Z,8.40
2017-08-11T15:16:05.277Z,7.60
2017-08-11T15:18:33.637Z,10.20
2017-08-11T15:21:02.112Z,6.97
2017-08-11T15:23:30.642Z,7.37
2017-08-11T15:25:59.017Z,11.50
2017-08-11T15:28:27.370Z,6.77
2017-08-11T15:30:56.489Z,7.07
2017-08-11T15:33:25.067Z,11.67
2017-08-11T15:35:53.414Z,6.93
2017-08-11T15:38:22.539Z,6.57
2017-08-11T15:40:50.918Z,6.87
2017-08-11T15:43:19.289Z,7.50
2017-08-11T15:45:47.675Z,7.17
2017-08-11T15:48:16.246Z,6.23
2017-08-11T15:50:44.602Z,7.67
2017-08-11T15:53:12.996Z,8.30
2017-08-11T15:55:41.352Z,6.93
2017-08-11T15:58:09.710Z,6.50
2017-08-11T16:00:39.045Z,7.20
2017-08-11T16:03:07.397Z,7.73
2017-08-11T16:05:35.757Z,7.03
2017-08-11T16:08:05.097Z,6.93
2017-08-11T16:10:33.456Z,7.20
2017-08-11T16:13:01.846Z,6.97
2017-08-11T16:15:30.207Z,7.80
2017-08-11T16:17:58.579Z,8.03
2017-08-11T16:20:26.939Z,6.40
2017-08-11T16:22:55.323Z,6.60
2017-08-11T16:25:23.625Z,6.77
2017-08-11T16:27:51.978Z,7.97
2017-08-11T16:30:20.348Z,7.50
2017-08-11T16:32:49.673Z,7.83
2017-08-11T16:35:18.119Z,7.70
2017-08-11T16:37:46.477Z,7.17
2017-08-11T16:40:14.865Z,7.50
2017-08-11T16:42:43.223Z,8.20
2017-08-11T16:45:11.860Z,7.63
2017-08-11T16:47:40.219Z,7.60
2017-08-11T16:50:08.580Z,7.67
2017-08-11T16:52:37.731Z,7.50
2017-08-11T16:55:06.094Z,8.23
2017-08-11T16:57:34.465Z,8.90
2017-08-11T17:00:02.850Z,7.00
2017-08-11T17:02:31.341Z,8.50
2017-08-11T17:04:59.714Z,7.00
2017-08-11T17:07:28.079Z,8.10
2017-08-11T17:09:56.469Z,7.90
2017-08-11T17:12:24.854Z,8.23
2017-08-11T17:14:53.271Z,7.93
2017-08-11T17:17:21.985Z,8.77
2017-08-11T17:19:50.383Z,8.33
2017-08-11T17:22:20.258Z,8.67
2017-08-11T17:24:50.365Z,8.13
2017-08-11T17:27:19.961Z,9.23
2017-08-11T17:29:48.387Z,8.33
2017-08-11T17:32:16.840Z,8.17
2017-08-11T17:34:46.558Z,8.90
2017-08-11T17:37:15.922Z,8.60
2017-08-11T17:39:44.438Z,8.40
2017-08-11T17:42:13.684Z,9.50
2017-08-11T17:44:43.399Z,8.37
2017-08-11T17:47:12.228Z,7.43
2017-08-11T17:49:40.596Z,7.30
2017-08-11T17:52:10.607Z,8.50
2017-08-11T17:54:40.636Z,7.97
2017-08-11T17:57:09.734Z,7.83
2017-08-11T17:59:38.361Z,6.93
2017-08-11T18:02:07.795Z,7.43
2017-08-11T18:04:36.819Z,8.37
2017-08-11T18:07:05.737Z,7.43
2017-08-11T18:09:35.070Z,7.13
2017-08-11T18:12:03.466Z,7.73
2017-08-11T18:14:31.826Z,7.40
2017-08-11T18:17:00.216Z,6.73
2017-08-11T18:19:29.339Z,6.50
2017-08-11T18:21:58.123Z,7.10
2017-08-11T18:24:27.478Z,6.83
2017-08-11T18:26:55.981Z,7.50
2017-08-11T18:29:25.786Z,6.60
2017-08-11T18:31:54.328Z,6.53
2017-08-11T18:34:22.732Z,6.40
2017-08-11T18:36:51.104Z,7.23
2017-08-11T18:39:19.514Z,6.77
2017-08-11T18:41:47.905Z,6.90
2017-08-11T18:44:16.280Z,6.90
2017-08-11T18:46:44.728Z,6.40
2017-08-11T18:49:13.290Z,6.90
2017-08-11T18:51:43.615Z,7.10
2017-08-11T18:54:12.515Z,6.40
2017-08-11T18:56:41.092Z,7.27
2017-08-11T18:59:09.456Z,7.63
2017-08-11T19:01:40.716Z,7.47
2017-08-11T19:04:11.218Z,7.00
2017-08-11T19:06:40.682Z,7.30
2017-08-11T19:09:09.063Z,7.37
2017-08-11T19:11:37.431Z,6.07
2017-08-11T19:14:05.782Z,6.97
2017-08-11T19:16:34.163Z,7.00
2017-08-11T19:19:02.565Z,7.00
2017-08-11T19:21:30.948Z,6.23
2017-08-11T19:23:59.880Z,6.30
2017-08-11T19:26:28.952Z,7.70
2017-08-11T19:28:57.316Z,7.60
2017-08-11T19:31:25.756Z,7.87
2017-08-11T19:33:54.167Z,7.90
2017-08-11T19:36:22.663Z,8.40
2017-08-11T19:38:51.743Z,8.70
2017-08-11T19:41:20.087Z,7.87
2017-08-11T19:43:48.569Z,9.00
2017-08-11T19:46:16.995Z,8.73
2017-08-11T19:48:45.463Z,8.83
2017-08-11T19:51:14.144Z,9.90
2017-08-11T19:53:42.500Z,8.73
2017-08-11T19:56:11.001Z,9.40
2017-08-11T19:58:39.384Z,9.03
2017-08-11T20:01:07.779Z,10.20
2017-08-11T20:03:36.148Z,10.20
2017-08-11T20:06:04.657Z,9.00
2017-08-11T20:08:33.023Z,10.57
2017-08-11T20:11:01.412Z,10.50
2017-08-11T20:13:30.553Z,10.70
2017-08-11T20:15:58.927Z,11.20
2017-08-11T20:18:27.510Z,11.50
2017-08-11T20:20:55.906Z,10.17
2017-08-11T20:23:24.292Z,9.60
2017-08-11T20:25:52.664Z,10.60
2017-08-11T20:28:21.072Z,9.97
2017-08-11T20:30:49.438Z,10.30
2017-08-11T20:33:17.813Z,10.70
2017-08-11T20:35:46.179Z,9.27
2017-08-11T20:38:14.554Z,8.70
2017-08-11T20:40:42.930Z,7.90
2017-08-11T20:43:12.178Z,9.60
2017-08-11T20:45:40.564Z,8.40
2017-08-11T20:48:08.917Z,9.20
2017-08-11T20:50:37.337Z,8.80
2017-08-11T20:53:05.759Z,8.17
2017-08-11T20:55:34.118Z,7.20
2017-08-11T20:58:02.465Z,7.93
2017-08-11T21:00:30.962Z,9.00
2017-08-11T21:02:59.323Z,7.10
2017-08-11T21:05:27.692Z,7.93
2017-08-11T21:07:56.072Z,6.93
2017-08-11T21:10:27.063Z,6.97
2017-08-11T21:12:56.209Z,6.90
2017-08-11T21:15:24.562Z,6.23
2017-08-11T21:17:53.043Z,6.63
2017-08-11T21:20:21.411Z,6.60
2017-08-11T21:22:49.839Z,5.83
2017-08-11T21:25:18.181Z,5.77
2017-08-11T21:27:46.553Z,5.87
2017-08-11T21:30:16.219Z,5.80
2017-08-11T21:32:44.602Z,5.67
2017-08-11T21:35:12.959Z,5.50
2017-08-11T21:37:42.298Z,5.77
2017-08-11T21:40:10.713Z,5.10
2017-08-11T21:42:39.080Z,5.40
2017-08-11T21:45:07.758Z,5.80
2017-08-11T21:47:36.130Z,5.33
2017-08-11T21:50:04.135Z,5.37
2017-08-11T21:52:33.278Z,5.43
2017-08-11T21:55:01.646Z,6.10
2017-08-11T21:57:30.019Z,5.23
2017-08-11T21:59:58.600Z,5.87
2017-08-11T22:02:27.128Z,5.43
2017-08-11T22:04:55.660Z,5.73
2017-08-11T22:07:24.079Z,5.20
2017-08-11T22:09:52.715Z,5.33
2017-08-11T22:12:21.062Z,5.30
2017-08-11T22:14:50.189Z,5.30
2017-08-11T22:17:19.102Z,5.77
2017-08-11T22:19:47.469Z,5.30
2017-08-11T22:22:15.905Z,5.37
2017-08-11T22:24:44.278Z,5.13
2017-08-11T22:27:13.031Z,5.93
2017-08-11T22:29:42.168Z,4.87
2017-08-11T22:32:10.544Z,5.30
2017-08-11T22:34:38.890Z,5.50
2017-08-11T22:37:08.025Z,5.17
2017-08-11T22:39:36.380Z,5.10
2017-08-11T22:42:04.735Z,5.27
2017-08-11T22:44:33.102Z,4.90
2017-08-11T22:47:01.462Z,4.97
2017-08-11T22:49:29.844Z,4.70
2017-08-11T22:51:58.486Z,5.23
2017-08-11T22:54:26.918Z,5.30
2017-08-11T22:56:55.352Z,5.80
2017-08-11T22:59:23.717Z,5.70
2017-08-11T23:01:52.300Z,5.97
2017-08-11T23:04:20.664Z,5.70
2017-08-11T23:06:49.046Z,6.10
2017-08-11T23:09:17.639Z,5.77
2017-08-11T23:11:46.108Z,6.77
2017-08-11T23:14:14.471Z,8.17
2017-08-11T23:16:42.919Z,7.63
2017-08-11T23:19:11.458Z,7.23
2017-08-11T23:21:39.813Z,6.60
2017-08-11T23:24:08.207Z,7.47
2017-08-11T23:26:36.670Z,6.73
2017-08-11T23:29:05.056Z,6.90
2017-08-11T23:31:33.730Z,6.90
2017-08-11T23:34:02.082Z,6.73
2017-08-11T23:36:30.436Z,6.57
2017-08-11T23:38:59.778Z,6.77
2017-08-11T23:41:28.125Z,6.80
2017-08-11T23:43:57.914Z,7.00
2017-08-11T23:46:26.271Z,7.50
2017-08-11T23:48:54.671Z,7.27
2017-08-11T23:51:23.019Z,6.20
2017-08-11T23:53:51.371Z,7.17
2017-08-11T23:56:19.789Z,7.17
2017-08-11T23:58:48.151Z,6.70
